createdAt,value
2022-07-29T00:02:27.755Z,55.67
2022-07-29T00:04:54.894Z,55.80
2022-07-29T00:07:21.902Z,55.97
2022-07-29T00:09:51.361Z,56.06
2022-07-29T00:12:26.136Z,56.32
2022-07-29T00:14:57.932Z,56.39
2022-07-29T00:17:25.480Z,56.56
2022-07-29T00:19:52.979Z,56.79
2022-07-29T00:22:20.612Z,57.48
2022-07-29T00:24:50.562Z,57.58
2022-07-29T00:27:18.199Z,57.85
2022-07-29T00:29:45.153Z,57.77
2022-07-29T00:32:12.144Z,57.86
2022-07-29T00:34:57.398Z,57.69
2022-07-29T00:37:24.573Z,57.88
2022-07-29T00:39:51.521Z,57.79
2022-07-29T00:42:18.719Z,57.92
2022-07-29T00:44:45.618Z,57.97
2022-07-29T00:47:13.391Z,57.99
2022-07-29T00:49:42.210Z,58.07
2022-07-29T00:52:10.589Z,58.42
2022-07-29T00:54:44.815Z,58.21
2022-07-29T00:57:12.932Z,58.19
2022-07-29T00:59:41.543Z,58.22
2022-07-29T01:02:08.546Z,58.07
2022-07-29T01:04:35.655Z,58.55
2022-07-29T01:07:03.993Z,58.79
2022-07-29T01:09:46.342Z,59.07
2022-07-29T01:12:25.392Z,58.82
2022-07-29T01:14:54.541Z,59.33
2022-07-29T01:17:29.800Z,58.87
2022-07-29T01:20:13.721Z,59.10
2022-07-29T01:23:08.200Z,59.36
2022-07-29T01:25:59.537Z,59.20
2022-07-29T01:28:54.033Z,59.42
2022-07-29T01:31:56.592Z,59.74
2022-07-29T01:34:49.627Z,60.05
2022-07-29T01:37:20.483Z,59.86
2022-07-29T01:39:50.340Z,59.87
2022-07-29T01:42:37.871Z,60.17
2022-07-29T01:45:15.468Z,60.35
2022-07-29T01:48:01.366Z,60.85
2022-07-29T01:50:35.282Z,61.13
2022-07-29T01:53:05.675Z,60.87
2022-07-29T01:55:37.605Z,61.06
2022-07-29T01:58:07.068Z,61.33
2022-07-29T02:00:35.719Z,61.33
2022-07-29T02:03:08.507Z,61.58
2022-07-29T02:05:37.213Z,62.42
2022-07-29T02:08:06.193Z,62.02
2022-07-29T02:10:35.988Z,62.01
2022-07-29T02:13:04.381Z,62.09
2022-07-29T02:15:34.105Z,62.49
2022-07-29T02:18:09.359Z,62.63
2022-07-29T02:20:38.861Z,63.43
2022-07-29T02:23:07.163Z,63.15
2022-07-29T02:25:38.186Z,63.35
2022-07-29T02:28:08.645Z,63.26
2022-07-29T02:30:42.983Z,63.25
2022-07-29T02:33:13.614Z,63.24
2022-07-29T02:35:42.882Z,63.10
2022-07-29T02:38:34.303Z,63.15
2022-07-29T02:41:21.016Z,63.82
2022-07-29T02:43:56.229Z,64.06
2022-07-29T02:46:31.754Z,63.79
2022-07-29T02:49:18.337Z,63.67
2022-07-29T02:51:55.004Z,63.63
2022-07-29T02:54:38.715Z,63.93
2022-07-29T02:57:54.345Z,64.07
2022-07-29T03:00:24.885Z,64.10
2022-07-29T03:02:55.814Z,63.93
2022-07-29T03:05:23.853Z,63.82
2022-07-29T03:07:56.605Z,64.16
2022-07-29T03:10:24.481Z,64.22
2022-07-29T03:12:51.687Z,64.29
2022-07-29T03:15:19.946Z,64.26
2022-07-29T03:17:47.505Z,64.40
2022-07-29T03:20:14.978Z,64.81
2022-07-29T03:22:48.143Z,65.34
2022-07-29T03:25:17.275Z,65.35
2022-07-29T03:27:44.661Z,65.15
2022-07-29T03:30:18.442Z,65.40
2022-07-29T03:32:49.664Z,66.17
2022-07-29T03:35:23.644Z,65.66
2022-07-29T03:37:50.800Z,65.73
2022-07-29T03:40:27.082Z,65.50
2022-07-29T03:42:55.978Z,65.82
2022-07-29T03:45:24.136Z,66.08
2022-07-29T03:48:00.622Z,65.91
2022-07-29T03:50:29.952Z,65.88
2022-07-29T03:52:57.294Z,65.81
2022-07-29T03:55:24.660Z,65.66
2022-07-29T03:57:52.152Z,65.56
2022-07-29T04:00:20.602Z,65.79
2022-07-29T04:02:49.729Z,65.66
2022-07-29T04:05:17.767Z,65.49
2022-07-29T04:07:48.954Z,65.44
2022-07-29T04:10:16.825Z,65.38
2022-07-29T04:12:44.226Z,65.33
2022-07-29T04:15:12.171Z,65.27
2022-07-29T04:17:39.708Z,65.17
2022-07-29T04:20:07.135Z,64.82
2022-07-29T04:22:35.212Z,64.84
2022-07-29T04:25:04.263Z,65.08
2022-07-29T04:27:31.631Z,64.69
2022-07-29T04:29:58.712Z,64.27
2022-07-29T04:32:26.856Z,63.93
2022-07-29T04:34:53.762Z,63.61
2022-07-29T04:37:20.742Z,63.62
2022-07-29T04:39:47.615Z,63.15
2022-07-29T04:42:14.561Z,62.95
2022-07-29T04:44:42.905Z,62.69
2022-07-29T04:47:10.390Z,62.75
2022-07-29T04:49:40.594Z,62.73
2022-07-29T04:52:07.801Z,62.70
2022-07-29T04:54:34.681Z,62.63
2022-07-29T04:57:01.667Z,62.47
2022-07-29T04:59:28.808Z,62.47
2022-07-29T05:01:55.805Z,62.96
2022-07-29T05:04:22.782Z,63.50
2022-07-29T05:06:50.396Z,63.00
2022-07-29T05:09:17.275Z,62.77
2022-07-29T05:11:44.186Z,62.98
2022-07-29T05:14:11.138Z,62.80
2022-07-29T05:16:38.118Z,62.98
2022-07-29T05:19:05.013Z,62.56
2022-07-29T05:21:31.883Z,62.64
2022-07-29T05:23:58.784Z,62.85
2022-07-29T05:26:25.650Z,62.72
2022-07-29T05:28:52.540Z,62.73
2022-07-29T05:31:19.577Z,62.61
2022-07-29T05:33:46.753Z,62.70
2022-07-29T05:36:13.725Z,62.34
2022-07-29T05:38:40.632Z,62.02
2022-07-29T05:41:07.830Z,61.91
2022-07-29T05:43:34.671Z,61.82
2022-07-29T05:46:01.877Z,61.74
2022-07-29T05:48:29.058Z,62.37
2022-07-29T05:50:56.126Z,61.79
2022-07-29T05:53:23.459Z,61.57
2022-07-29T05:55:51.262Z,60.99
2022-07-29T05:58:18.648Z,61.07
2022-07-29T06:00:45.576Z,60.58
2022-07-29T06:03:12.809Z,60.55
2022-07-29T06:05:39.693Z,59.68
2022-07-29T06:08:09.558Z,59.58
2022-07-29T06:10:37.117Z,59.47
2022-07-29T06:13:04.261Z,59.25
2022-07-29T06:15:31.496Z,59.56
2022-07-29T06:17:59.840Z,59.09
2022-07-29T06:20:32.901Z,58.58
2022-07-29T06:23:00.623Z,58.40
2022-07-29T06:25:30.352Z,58.27
2022-07-29T06:27:58.543Z,58.05
2022-07-29T06:30:25.509Z,57.53
2022-07-29T06:32:52.813Z,57.24
2022-07-29T06:35:39.193Z,56.67
2022-07-29T06:38:14.919Z,56.37
2022-07-29T06:41:07.063Z,55.63
2022-07-29T06:43:52.341Z,55.93
2022-07-29T06:46:22.468Z,55.48
2022-07-29T06:48:49.921Z,54.48
2022-07-29T06:51:22.250Z,53.34
2022-07-29T06:54:00.004Z,53.26
2022-07-29T06:56:38.927Z,52.99
2022-07-29T06:59:12.133Z,52.28
2022-07-29T07:01:41.968Z,51.60
2022-07-29T07:04:10.164Z,51.12
2022-07-29T07:06:37.245Z,47.01
2022-07-29T07:09:04.405Z,46.04
2022-07-29T07:11:31.672Z,47.34
2022-07-29T07:14:02.997Z,46.64
2022-07-29T07:16:30.340Z,46.84
2022-07-29T07:18:57.270Z,45.93
2022-07-29T07:21:24.200Z,45.64
2022-07-29T07:23:51.220Z,45.89
2022-07-29T07:26:18.229Z,45.65
2022-07-29T07:28:45.192Z,45.11
2022-07-29T07:31:13.231Z,45.07
2022-07-29T07:33:40.970Z,45.17
2022-07-29T07:36:07.974Z,45.35
2022-07-29T07:38:35.079Z,45.36
2022-07-29T07:41:02.347Z,44.80
2022-07-29T07:43:29.320Z,43.71
2022-07-29T07:45:56.300Z,44.12
2022-07-29T07:48:23.220Z,43.45
2022-07-29T07:50:50.521Z,43.57
2022-07-29T07:53:17.653Z,43.20
2022-07-29T07:56:09.272Z,43.51
2022-07-29T07:58:32.000Z,43.25
2022-07-29T08:00:59.035Z,42.98
2022-07-29T08:03:25.925Z,42.67
2022-07-29T08:05:52.998Z,42.34
2022-07-29T08:08:20.064Z,41.57
2022-07-29T08:10:53.288Z,41.73
2022-07-29T08:13:26.453Z,41.11
2022-07-29T08:16:00.866Z,41.15
2022-07-29T08:18:30.164Z,40.57
2022-07-29T08:20:57.845Z,40.23
2022-07-29T08:23:25.248Z,39.58
2022-07-29T08:25:52.376Z,39.44
2022-07-29T08:28:25.883Z,39.31
2022-07-29T08:30:53.314Z,39.26
2022-07-29T08:33:20.239Z,38.70
2022-07-29T08:35:47.260Z,37.74
2022-07-29T08:38:14.342Z,37.61
2022-07-29T08:40:41.210Z,37.50
2022-07-29T08:43:09.644Z,36.82
2022-07-29T08:45:48.603Z,35.86
2022-07-29T08:48:25.817Z,35.34
2022-07-29T08:50:57.558Z,35.15
2022-07-29T08:53:27.814Z,34.87
2022-07-29T08:55:55.806Z,33.97
2022-07-29T08:58:25.245Z,34.15
2022-07-29T09:00:55.778Z,33.26
2022-07-29T09:03:30.827Z,31.33
2022-07-29T09:05:59.627Z,31.05
2022-07-29T09:08:27.216Z,30.99
2022-07-29T09:10:54.857Z,30.02
2022-07-29T09:13:22.034Z,28.47
2022-07-29T09:15:49.043Z,28.18
2022-07-29T09:18:34.272Z,27.73
2022-07-29T09:21:20.140Z,26.81
2022-07-29T09:24:06.563Z,26.38
2022-07-29T09:26:44.538Z,26.06
2022-07-29T09:29:14.468Z,26.47
2022-07-29T09:31:46.667Z,26.41
2022-07-29T09:34:15.823Z,24.62
2022-07-29T09:36:48.693Z,24.64
2022-07-29T09:39:27.154Z,23.65
2022-07-29T09:41:56.895Z,23.15
2022-07-29T09:44:24.574Z,23.32
2022-07-29T09:47:08.196Z,22.96
2022-07-29T09:49:36.654Z,22.44
2022-07-29T09:52:09.364Z,23.26
2022-07-29T09:54:40.302Z,22.86
2022-07-29T09:57:10.822Z,22.63
2022-07-29T09:59:50.007Z,22.17
2022-07-29T10:02:23.533Z,21.25
2022-07-29T10:04:50.900Z,20.43
2022-07-29T10:07:17.769Z,20.75
2022-07-29T10:09:57.443Z,20.69
2022-07-29T10:12:25.284Z,20.26
2022-07-29T10:14:52.565Z,19.78
2022-07-29T10:17:20.514Z,20.94
2022-07-29T10:19:49.925Z,20.62
2022-07-29T10:22:43.375Z,20.34
2022-07-29T10:25:04.728Z,19.50
2022-07-29T10:27:32.968Z,19.45
2022-07-29T10:29:59.937Z,19.34
2022-07-29T10:32:57.612Z,19.70
2022-07-29T10:35:35.479Z,20.05
2022-07-29T10:38:22.841Z,20.74
2022-07-29T10:41:44.058Z,22.06
2022-07-29T10:44:23.168Z,22.14
2022-07-29T10:46:52.785Z,23.98
2022-07-29T10:49:31.268Z,24.30
2022-07-29T10:52:00.236Z,24.10
2022-07-29T10:54:36.854Z,23.08
2022-07-29T10:57:53.803Z,22.56
2022-07-29T11:00:16.727Z,23.16
2022-07-29T11:02:52.949Z,24.00
2022-07-29T11:05:21.775Z,24.34
2022-07-29T11:08:19.935Z,24.78
2022-07-29T11:10:49.908Z,24.92
2022-07-29T11:13:44.364Z,22.15
2022-07-29T11:16:11.449Z,20.60
2022-07-29T11:19:14.093Z,20.13
2022-07-29T11:22:05.306Z,21.24
2022-07-29T11:30:13.042Z,22.45
2022-07-29T11:32:48.632Z,22.35
2022-07-29T11:35:36.973Z,23.58
2022-07-29T11:38:28.573Z,23.91
2022-07-29T11:41:27.777Z,22.48
2022-07-29T11:43:58.421Z,21.21
2022-07-29T11:46:46.808Z,19.49
2022-07-29T11:49:15.488Z,18.66
2022-07-29T11:51:48.364Z,17.80
2022-07-29T11:54:27.475Z,17.55
2022-07-29T11:56:55.038Z,19.57
2022-07-29T11:59:22.431Z,21.13
2022-07-29T12:02:18.503Z,19.86
2022-07-29T12:04:51.163Z,17.98
2022-07-29T12:07:01.334Z,22.83
2022-07-29T12:07:03.797Z,22.14
2022-07-29T12:07:18.617Z,17.69
2022-07-29T12:09:52.871Z,17.59
2022-07-29T12:12:24.624Z,16.64
2022-07-29T12:14:52.018Z,17.89
2022-07-29T12:17:33.397Z,19.05
2022-07-29T12:20:03.880Z,19.54
2022-07-29T12:22:41.468Z,18.21
2022-07-29T12:25:32.307Z,17.07
2022-07-29T12:28:03.635Z,17.34
2022-07-29T12:30:40.009Z,19.91
2022-07-29T12:33:29.414Z,20.94
2022-07-29T12:36:06.942Z,21.96
2022-07-29T12:38:41.292Z,21.86
2022-07-29T12:41:09.555Z,21.74
2022-07-29T12:43:36.610Z,21.71
2022-07-29T12:46:15.080Z,21.78
2022-07-29T12:48:43.873Z,19.32
2022-07-29T12:51:15.325Z,19.45
2022-07-29T12:53:42.541Z,19.63
2022-07-29T12:59:18.705Z,17.94
2022-07-29T13:01:49.012Z,16.72
2022-07-29T13:04:30.998Z,16.03
2022-07-29T13:07:09.242Z,15.07
2022-07-29T13:09:49.517Z,14.94
2022-07-29T13:12:16.574Z,14.93
2022-07-29T13:14:48.144Z,13.69
2022-07-29T13:17:28.412Z,15.15
2022-07-29T13:20:13.698Z,16.11
2022-07-29T13:22:42.197Z,17.57
2022-07-29T13:25:10.736Z,17.04
2022-07-29T13:27:40.604Z,16.09
2022-07-29T13:30:09.639Z,15.38
2022-07-29T13:32:37.406Z,15.71
2022-07-29T13:35:07.547Z,16.40
2022-07-29T13:37:36.121Z,15.85
2022-07-29T13:40:04.309Z,15.58
2022-07-29T13:42:32.784Z,15.39
2022-07-29T13:45:00.358Z,16.69
2022-07-29T13:47:32.185Z,16.08
2022-07-29T13:50:01.903Z,15.36
2022-07-29T13:52:29.495Z,15.65
2022-07-29T13:54:57.415Z,16.02
2022-07-29T13:57:24.399Z,15.48
2022-07-29T13:59:54.491Z,15.83
2022-07-29T14:02:25.742Z,16.66
2022-07-29T14:04:54.568Z,16.62
2022-07-29T14:07:22.372Z,16.52
2022-07-29T14:09:49.320Z,15.95
2022-07-29T14:12:16.339Z,16.09
2022-07-29T14:14:43.317Z,15.72
2022-07-29T14:17:12.717Z,15.68
2022-07-29T14:19:40.198Z,16.81
2022-07-29T14:22:08.959Z,15.80
2022-07-29T14:24:37.246Z,16.22
2022-07-29T14:27:09.009Z,16.02
2022-07-29T14:29:38.638Z,15.98
2022-07-29T14:32:11.511Z,14.66
2022-07-29T14:34:39.342Z,15.42
2022-07-29T14:37:07.212Z,15.19
2022-07-29T14:39:38.184Z,14.75
2022-07-29T14:42:10.087Z,14.54
2022-07-29T14:44:39.624Z,13.75
2022-07-29T14:47:07.571Z,13.81
2022-07-29T14:49:35.357Z,14.21
2022-07-29T14:52:02.205Z,14.46
2022-07-29T14:54:29.055Z,15.30
2022-07-29T14:56:58.337Z,16.06
2022-07-29T14:59:26.169Z,15.70
2022-07-29T15:01:53.312Z,15.43
2022-07-29T15:04:20.444Z,15.87
2022-07-29T15:06:47.368Z,15.75
2022-07-29T15:09:14.633Z,16.14
2022-07-29T15:11:41.492Z,16.55
2022-07-29T15:14:08.473Z,16.85
2022-07-29T15:16:41.916Z,16.10
2022-07-29T15:19:11.666Z,17.53
2022-07-29T15:21:47.923Z,19.03
2022-07-29T15:24:15.953Z,18.68
2022-07-29T15:26:44.997Z,18.28
2022-07-29T15:29:12.192Z,18.82
2022-07-29T15:31:40.714Z,18.43
2022-07-29T15:34:08.588Z,18.15
2022-07-29T15:36:52.128Z,17.43
2022-07-29T15:39:20.585Z,17.09
2022-07-29T15:41:47.634Z,17.17
2022-07-29T15:44:14.607Z,17.26
2022-07-29T15:47:00.576Z,16.97
2022-07-29T15:49:47.403Z,17.76
2022-07-29T15:52:25.506Z,18.10
2022-07-29T15:54:55.462Z,19.35
2022-07-29T15:57:23.035Z,19.71
2022-07-29T15:59:50.454Z,20.11
2022-07-29T16:02:17.886Z,20.11
2022-07-29T16:04:44.875Z,20.74
2022-07-29T16:07:11.846Z,20.70
2022-07-29T16:09:39.060Z,20.93
2022-07-29T16:12:14.858Z,21.49
2022-07-29T16:14:43.867Z,21.61
2022-07-29T16:17:14.541Z,22.03
2022-07-29T16:19:43.648Z,22.61
2022-07-29T16:22:10.817Z,22.66
2022-07-29T16:24:39.718Z,22.70
2022-07-29T16:27:07.546Z,22.93
2022-07-29T16:29:34.909Z,23.48
2022-07-29T16:32:02.000Z,23.49
2022-07-29T16:34:29.729Z,23.60
2022-07-29T16:36:56.589Z,23.87
2022-07-29T16:39:23.591Z,24.03
2022-07-29T16:41:50.726Z,24.25
2022-07-29T16:44:17.924Z,25.42
2022-07-29T16:46:45.485Z,25.64
2022-07-29T16:49:19.244Z,26.05
2022-07-29T16:51:47.920Z,26.54
2022-07-29T16:54:15.207Z,26.81
2022-07-29T16:56:42.071Z,27.31
2022-07-29T16:59:09.006Z,27.94
2022-07-29T17:01:35.973Z,28.52
2022-07-29T17:04:06.360Z,28.76
2022-07-29T17:06:38.359Z,28.84
2022-07-29T17:09:07.706Z,29.36
2022-07-29T17:11:52.780Z,29.39
2022-07-29T17:14:26.963Z,29.61
2022-07-29T17:17:01.125Z,30.28
2022-07-29T17:19:33.991Z,30.42
2022-07-29T17:22:11.739Z,30.86
2022-07-29T17:24:42.761Z,30.88
2022-07-29T17:27:10.487Z,31.21
2022-07-29T17:29:39.155Z,31.06
2022-07-29T17:32:07.595Z,31.06
2022-07-29T17:34:42.160Z,31.08
2022-07-29T17:37:10.825Z,31.86
2022-07-29T17:39:40.894Z,32.05
2022-07-29T17:42:14.480Z,32.53
2022-07-29T17:44:41.663Z,33.38
2022-07-29T17:47:15.713Z,33.50
2022-07-29T17:49:45.102Z,33.95
2022-07-29T17:52:12.122Z,34.83
2022-07-29T17:54:39.028Z,34.66
2022-07-29T17:57:06.015Z,34.92
2022-07-29T17:59:33.010Z,34.81
2022-07-29T18:02:00.168Z,35.16
2022-07-29T18:04:28.704Z,35.46
2022-07-29T18:06:55.923Z,35.68
2022-07-29T18:09:23.063Z,35.98
2022-07-29T18:11:49.910Z,36.60
2022-07-29T18:14:17.163Z,36.71
2022-07-29T18:16:44.173Z,36.79
2022-07-29T18:19:11.245Z,37.75
2022-07-29T18:21:45.978Z,37.25
2022-07-29T18:24:19.031Z,37.00
2022-07-29T18:26:46.043Z,36.88
2022-07-29T18:29:12.971Z,36.76
2022-07-29T18:31:41.215Z,37.05
2022-07-29T18:34:08.277Z,36.71
2022-07-29T18:36:35.278Z,36.90
2022-07-29T18:39:02.272Z,37.01
2022-07-29T18:41:29.298Z,37.79
2022-07-29T18:43:56.302Z,38.09
2022-07-29T18:46:23.245Z,38.09
2022-07-29T18:48:52.914Z,38.34
2022-07-29T18:51:19.822Z,38.12
2022-07-29T18:53:46.924Z,38.43
2022-07-29T18:56:14.090Z,38.90
2022-07-29T18:58:41.010Z,39.55
2022-07-29T19:01:07.963Z,40.08
2022-07-29T19:03:34.976Z,39.79
2022-07-29T19:06:01.939Z,40.20
2022-07-29T19:08:29.141Z,39.92
2022-07-29T19:10:56.160Z,39.58
2022-07-29T19:13:23.211Z,40.47
2022-07-29T19:15:50.197Z,41.22
2022-07-29T19:18:17.561Z,41.65
2022-07-29T19:20:44.590Z,41.96
2022-07-29T19:23:11.691Z,42.59
2022-07-29T19:25:53.075Z,42.99
2022-07-29T19:28:22.072Z,43.20
2022-07-29T19:30:49.613Z,43.77
2022-07-29T19:33:17.774Z,45.41
2022-07-29T19:35:45.906Z,44.53
2022-07-29T19:38:14.621Z,45.88
2022-07-29T19:40:41.634Z,46.43
2022-07-29T19:43:49.796Z,46.05
2022-07-29T19:45:56.768Z,45.69
2022-07-29T19:48:23.704Z,45.34
2022-07-29T19:50:50.621Z,45.59
2022-07-29T19:53:17.583Z,46.09
2022-07-29T19:55:44.482Z,45.98
2022-07-29T19:58:11.380Z,46.59
2022-07-29T20:00:38.258Z,46.80
2022-07-29T20:03:07.230Z,47.72
2022-07-29T20:05:34.221Z,48.44
2022-07-29T20:08:01.190Z,47.56
2022-07-29T20:10:28.505Z,47.31
2022-07-29T20:12:55.492Z,47.12
2022-07-29T20:15:22.642Z,47.52
2022-07-29T20:17:51.854Z,46.93
2022-07-29T20:20:23.236Z,46.83
2022-07-29T20:22:50.224Z,46.94
2022-07-29T20:25:17.552Z,46.31
2022-07-29T20:27:44.864Z,46.20
2022-07-29T20:30:15.157Z,46.10
2022-07-29T20:32:42.317Z,45.57
2022-07-29T20:35:13.464Z,45.04
2022-07-29T20:37:52.356Z,45.17
2022-07-29T20:40:24.864Z,45.47
2022-07-29T20:42:52.085Z,45.89
2022-07-29T20:45:20.108Z,46.51
2022-07-29T20:47:47.129Z,46.90
2022-07-29T20:50:14.163Z,47.33
2022-07-29T20:52:41.475Z,47.48
2022-07-29T20:55:09.100Z,48.13
2022-07-29T20:57:39.017Z,48.52
2022-07-29T21:00:08.735Z,48.59
2022-07-29T21:02:36.769Z,48.65
2022-07-29T21:05:04.574Z,49.46
2022-07-29T21:07:32.016Z,49.52
2022-07-29T21:09:59.077Z,49.86
2022-07-29T21:12:26.035Z,49.93
2022-07-29T21:14:52.942Z,51.17
2022-07-29T21:17:22.621Z,51.29
2022-07-29T21:19:55.355Z,50.77
2022-07-29T21:22:22.543Z,51.32
2022-07-29T21:24:49.800Z,51.62
2022-07-29T21:27:38.388Z,52.28
2022-07-29T21:30:07.738Z,51.40
2022-07-29T21:32:35.014Z,51.56
2022-07-29T21:35:01.908Z,51.52
2022-07-29T21:37:29.050Z,51.75
2022-07-29T21:39:57.177Z,52.24
2022-07-29T21:42:24.473Z,51.95
2022-07-29T21:44:51.675Z,52.95
2022-07-29T21:47:18.699Z,52.74
2022-07-29T21:49:46.609Z,53.34
2022-07-29T21:52:14.255Z,53.28
2022-07-29T21:54:41.894Z,54.03
2022-07-29T21:57:09.507Z,54.54
2022-07-29T21:59:36.786Z,54.13
2022-07-29T22:02:03.798Z,53.93
2022-07-29T22:04:31.271Z,53.72
2022-07-29T22:06:58.954Z,53.86
2022-07-29T22:09:26.221Z,54.19
2022-07-29T22:11:54.104Z,54.13
2022-07-29T22:14:21.297Z,54.94
2022-07-29T22:16:48.569Z,55.08
2022-07-29T22:19:15.704Z,54.76
2022-07-29T22:21:42.778Z,54.64
2022-07-29T22:24:10.706Z,55.08
2022-07-29T22:26:38.383Z,55.60
2022-07-29T22:29:05.759Z,55.59
2022-07-29T22:31:32.626Z,55.35
2022-07-29T22:33:59.570Z,55.92
2022-07-29T22:36:27.021Z,56.65
2022-07-29T22:38:53.960Z,56.44
2022-07-29T22:41:20.860Z,57.12
2022-07-29T22:43:47.754Z,56.60
2022-07-29T22:46:14.753Z,56.53
2022-07-29T22:48:41.766Z,56.75
2022-07-29T22:51:08.828Z,57.13
2022-07-29T22:53:36.995Z,57.69
2022-07-29T22:56:06.536Z,58.25
2022-07-29T22:58:33.476Z,57.74
2022-07-29T23:01:00.596Z,58.10
2022-07-29T23:03:27.590Z,59.18
2022-07-29T23:05:54.555Z,58.88
2022-07-29T23:08:21.453Z,59.57
2022-07-29T23:10:48.464Z,58.42
2022-07-29T23:13:15.529Z,58.29
2022-07-29T23:15:42.545Z,58.17
2022-07-29T23:18:09.562Z,57.96
2022-07-29T23:20:36.554Z,57.90
2022-07-29T23:23:03.474Z,57.91
2022-07-29T23:25:30.512Z,58.03
2022-07-29T23:27:57.503Z,58.36
2022-07-29T23:30:24.564Z,58.49
2022-07-29T23:32:51.524Z,58.69
2022-07-29T23:35:18.683Z,58.80
2022-07-29T23:37:45.783Z,58.69
2022-07-29T23:40:14.718Z,58.93
2022-07-29T23:42:43.021Z,58.83
2022-07-29T23:45:11.279Z,58.88
2022-07-29T23:47:38.367Z,59.11
2022-07-29T23:50:07.003Z,59.13
2022-07-29T23:52:33.981Z,59.90
2022-07-29T23:55:37.465Z,59.55
2022-07-29T23:57:50.148Z,59.45
